O seu navegador (Generic Browser 0) está desatualizado. Melhore sua experiência em nosso site!
Atualize Agora
Última chance de garantir sua Assinatura ilimitada com preço especial de lançamento. Aproveite! EU QUERO!

Questões de Concursos

Q748921 Meteorologia

Observe a mensagem METAR abaixo.

SBEC 181000Z 25015G27KT 270V340 5000 1500N +TSRA FEW005 FEW010CB SCT018 BKN025 10/10 Q0998 REDZ W15/S5.

No campo de informações suplementares, o termo W15/S5 significa:

Você errou!   Resposta: Parabéns! Você acertou!